Time;durP1;ratioP1;P1;durP2;ratioP2;P2;SDS_P1;SDS_P2;PMS_P1;PMS_P2;Temp;Humidity;BMP_temperature;BMP_pressure;BME280_temperature;BME280_humidity;BME280_pressure;Samples;Min_cycle;Max_cycle;Signal;HPM_P1;HPM_P2
2023/03/18 00:00:44;;;;;;;;;22.00;20.50;;;;;15.10;69.14;100321.09;2097957;28;46438;-68
2023/03/18 00:01:45;;;;;;;;;20.00;20.00;;;;;15.08;69.31;100320.31;2098173;28;46255;-68
2023/03/18 00:02:47;;;;;;;;;20.80;20.80;;;;;15.08;69.42;100325.66;2100914;28;46359;-68
2023/03/18 00:03:47;;;;;;;;;20.80;20.80;;;;;15.08;69.33;100325.66;2104807;28;46964;-67
2023/03/18 00:04:48;;;;;;;;;20.25;20.25;;;;;15.07;69.04;100324.78;2105317;28;45619;-68
2023/03/18 00:05:49;;;;;;;;;19.00;18.75;;;;;15.07;69.70;100323.91;2094997;28;46595;-68
2023/03/18 00:06:49;;;;;;;;;21.20;21.20;;;;;15.07;69.41;100329.25;2095902;28;46028;-68
2023/03/18 00:07:50;;;;;;;;;21.25;19.75;;;;;15.07;69.43;100332.81;2087365;28;46762;-68
2023/03/18 00:08:51;;;;;;;;;19.75;18.00;;;;;15.07;69.26;100324.78;2087208;28;46466;-68
2023/03/18 00:09:51;;;;;;;;;21.80;20.80;;;;;15.07;68.99;100330.13;2095764;28;45931;-69
2023/03/18 00:10:52;;;;;;;;;19.50;19.50;;;;;15.08;69.11;100334.53;2093657;28;46326;-68
2023/03/18 00:11:55;;;;;;;;;22.00;21.25;;;;;15.09;69.73;100338.06;2087400;28;46339;-68
2023/03/18 00:12:56;;;;;;;;;20.80;20.80;;;;;15.07;69.49;100338.16;2093573;28;46411;-67
2023/03/18 00:13:57;;;;;;;;;23.75;22.50;;;;;15.10;69.29;100342.47;2095910;28;46916;-68
2023/03/18 00:14:58;;;;;;;;;22.00;19.80;;;;;15.09;69.22;100343.41;2079256;28;46093;-68
2023/03/18 00:16:04;;;;;;;;;22.50;21.50;;;;;15.09;69.50;100335.41;2086428;28;46301;-68
2023/03/18 00:17:04;;;;;;;;;20.40;19.60;;;;;15.08;69.37;100345.22;2096266;28;46862;-68
2023/03/18 00:18:05;;;;;;;;;22.50;22.50;;;;;15.08;69.10;100344.34;2095919;28;45933;-68
2023/03/18 00:19:06;;;;;;;;;22.50;20.50;;;;;15.08;69.57;100345.22;2095942;28;46632;-68
2023/03/18 00:20:07;;;;;;;;;19.00;19.00;;;;;15.08;69.23;100347.03;2095775;28;46574;-68
2023/03/18 00:21:08;;;;;;;;;17.40;17.40;;;;;15.10;69.28;100345.16;2095599;28;46049;-68
2023/03/18 00:22:09;;;;;;;;;23.60;23.60;;;;;15.10;69.20;100340.66;2087188;28;46550;-69
2023/03/18 00:23:09;;;;;;;;;25.00;24.00;;;;;15.10;69.10;100343.34;2088054;28;45681;-68
2023/03/18 00:24:11;;;;;;;;;25.25;23.75;;;;;15.10;69.70;100346.00;2096042;28;46500;-67
2023/03/18 00:25:13;;;;;;;;;28.00;24.40;;;;;15.08;69.74;100344.34;2096020;28;45810;-68
2023/03/18 00:26:13;;;;;;;;;24.40;23.00;;;;;15.06;69.70;100352.44;2091847;28;46097;-68
2023/03/18 00:27:13;;;;;;;;;23.25;21.00;;;;;15.05;69.28;100344.50;2094217;28;45690;-68
2023/03/18 00:28:14;;;;;;;;;24.50;20.25;;;;;15.02;69.37;100349.06;2095789;28;46291;-67
2023/03/18 00:29:14;;;;;;;;;22.00;21.50;;;;;15.01;69.15;100344.66;2091658;28;46927;-68
2023/03/18 00:30:15;;;;;;;;;24.25;22.25;;;;;15.02;69.36;100348.19;2095210;28;46219;-67
2023/03/18 00:31:15;;;;;;;;;27.75;25.75;;;;;15.02;69.03;100340.19;2095708;28;45230;-69
2023/03/18 00:32:16;;;;;;;;;23.75;22.75;;;;;15.02;69.51;100342.84;2095607;28;46556;-68
2023/03/18 00:33:17;;;;;;;;;17.00;16.50;;;;;15.01;69.14;100344.66;2095695;28;45280;-67
2023/03/18 00:34:17;;;;;;;;;23.25;20.00;;;;;15.01;69.15;100350.00;2095630;28;46338;-69
2023/03/18 00:35:18;;;;;;;;;27.25;22.00;;;;;15.00;69.22;100347.41;2095079;28;46081;-68
2023/03/18 00:36:24;;;;;;;;;22.50;19.25;;;;;14.99;69.31;100350.97;2087304;28;46944;-68
2023/03/18 00:37:32;;;;;;;;;21.60;21.60;;;;;14.97;69.03;100345.72;2091471;28;46982;-68
2023/03/18 00:38:34;;;;;;;;;25.60;22.60;;;;;14.96;69.42;100352.00;2104950;28;45932;-68
2023/03/18 00:39:36;;;;;;;;;23.00;23.00;;;;;14.95;69.49;100352.94;2105161;28;46475;-67
2023/03/18 00:40:42;;;;;;;;;24.80;23.00;;;;;14.93;69.30;100359.28;2104932;28;46453;-68
2023/03/18 00:41:42;;;;;;;;;23.00;20.20;;;;;14.90;69.20;100357.63;2095711;28;46721;-67
2023/03/18 00:42:46;;;;;;;;;23.25;20.50;;;;;14.89;69.33;100355.91;2096268;28;46594;-68
2023/03/18 00:43:51;;;;;;;;;25.60;24.00;;;;;14.90;69.37;100359.44;2097071;28;46332;-68
2023/03/18 00:44:51;;;;;;;;;21.80;21.80;;;;;14.89;69.39;100357.72;2095752;28;46003;-67
2023/03/18 00:45:51;;;;;;;;;23.25;22.25;;;;;14.88;69.40;100356.84;2101470;28;46707;-67
2023/03/18 00:46:52;;;;;;;;;20.50;20.50;;;;;14.87;69.39;100360.44;2109594;27;46696;-67
2023/03/18 00:47:53;;;;;;;;;25.75;20.75;;;;;14.85;69.00;100358.75;2095158;28;46002;-68
2023/03/18 00:48:57;;;;;;;;;18.80;18.00;;;;;14.82;69.03;100354.44;2095516;28;46546;-67
2023/03/18 00:49:57;;;;;;;;;25.00;24.60;;;;;14.82;68.73;100353.56;2104954;28;46245;-67
2023/03/18 00:50:58;;;;;;;;;21.50;18.00;;;;;14.80;69.36;100353.63;2113300;27;46595;-68
2023/03/18 00:51:59;;;;;;;;;27.25;22.75;;;;;14.79;68.83;100348.38;2107656;27;46775;-67
2023/03/18 00:52:59;;;;;;;;;23.00;21.40;;;;;14.77;69.11;100350.25;2104961;28;46903;-68
2023/03/18 00:54:03;;;;;;;;;17.00;17.00;;;;;14.75;69.47;100344.97;2096235;28;46692;-68
2023/03/18 00:55:05;;;;;;;;;22.20;19.40;;;;;14.73;68.90;100339.66;2091755;28;46414;-68
2023/03/18 00:56:07;;;;;;;;;22.20;22.20;;;;;14.72;68.83;100332.59;2096242;28;46882;-68
2023/03/18 00:57:09;;;;;;;;;19.80;19.40;;;;;14.72;68.89;100337.94;2096560;28;46735;-69
2023/03/18 00:58:11;;;;;;;;;11.80;11.00;;;;;14.72;69.01;100329.06;2100402;28;45162;-68
2023/03/18 00:59:12;;;;;;;;;20.40;18.60;;;;;14.70;69.22;100326.47;2105578;28;46437;-67
2023/03/18 01:00:15;;;;;;;;;20.00;20.00;;;;;14.70;68.64;100331.81;2097961;28;46801;-68
2023/03/18 01:01:16;;;;;;;;;22.00;21.00;;;;;14.67;68.69;100329.28;2099224;28;46930;-68
2023/03/18 01:02:18;;;;;;;;;16.75;16.75;;;;;14.66;68.92;100330.22;2102757;28;46423;-68
2023/03/18 01:03:18;;;;;;;;;18.40;18.40;;;;;14.65;68.92;100331.16;2098646;28;46760;-68
2023/03/18 01:04:20;;;;;;;;;21.50;20.50;;;;;14.64;68.89;100328.56;2087627;28;45960;-69
2023/03/18 01:05:21;;;;;;;;;20.80;18.60;;;;;14.63;68.70;100330.34;2079751;28;47836;-68
2023/03/18 01:06:25;;;;;;;;;18.80;18.80;;;;;14.63;68.98;100334.84;2090815;28;46370;-68
2023/03/18 01:07:25;;;;;;;;;20.60;19.60;;;;;14.63;68.73;100324.16;2096910;28;46242;-67
2023/03/18 01:08:26;;;;;;;;;20.50;19.75;;;;;14.62;68.66;100328.63;2104798;28;46382;-67
2023/03/18 01:09:26;;;;;;;;;17.25;17.25;;;;;14.62;68.52;100328.63;2105363;27;46669;-68
2023/03/18 01:10:27;;;;;;;;;14.00;13.75;;;;;14.61;68.67;100326.91;2104966;27;45786;-68
2023/03/18 01:11:28;;;;;;;;;18.75;18.75;;;;;14.61;68.36;100329.56;2106466;27;46696;-69
2023/03/18 01:12:28;;;;;;;;;19.80;18.60;;;;;14.62;68.49;100330.44;2107014;27;45266;-68
2023/03/18 01:13:29;;;;;;;;;17.75;16.50;;;;;14.61;68.60;100326.91;2105127;28;46206;-68
2023/03/18 01:14:29;;;;;;;;;16.25;15.75;;;;;14.59;68.44;100334.06;2097748;28;46648;-69
2023/03/18 01:15:30;;;;;;;;;18.50;17.00;;;;;14.57;68.40;100332.41;2094805;28;45840;-68
2023/03/18 01:16:30;;;;;;;;;20.75;18.75;;;;;14.57;68.78;100341.28;2104680;28;47041;-68
2023/03/18 01:17:31;;;;;;;;;21.25;19.25;;;;;14.57;68.48;100335.09;2109749;27;46175;-67
2023/03/18 01:18:32;;;;;;;;;18.50;18.00;;;;;14.57;68.31;100330.59;2103378;28;47360;-69
2023/03/18 01:19:33;;;;;;;;;19.80;18.20;;;;;14.55;68.31;100329.81;2103831;27;47076;-68
2023/03/18 01:20:34;;;;;;;;;17.80;17.20;;;;;14.54;68.49;100336.09;2112835;27;46253;-68
2023/03/18 01:21:35;;;;;;;;;16.60;15.60;;;;;14.54;68.51;100333.44;2098507;28;45274;-67
2023/03/18 01:22:35;;;;;;;;;18.25;17.50;;;;;14.54;68.30;100341.44;2102937;28;45995;-68
2023/03/18 01:23:37;;;;;;;;;16.25;16.00;;;;;14.54;68.25;100341.44;2113103;27;47029;-67
2023/03/18 01:24:38;;;;;;;;;17.00;16.60;;;;;14.53;68.27;100346.84;2113369;27;46665;-68
2023/03/18 01:25:38;;;;;;;;;16.60;16.00;;;;;14.51;68.39;100338.03;2103766;28;46429;-67
2023/03/18 01:26:39;;;;;;;;;13.50;13.50;;;;;14.49;68.19;100332.78;2103907;28;46907;-69
2023/03/18 01:27:39;;;;;;;;;17.25;17.25;;;;;14.49;68.25;100329.25;2111795;27;46346;-68
2023/03/18 01:28:41;;;;;;;;;18.00;17.75;;;;;14.48;68.26;100333.69;2107944;27;46015;-68
2023/03/18 01:29:41;;;;;;;;;18.80;18.60;;;;;14.48;68.35;100332.81;2113308;27;46495;-67
2023/03/18 01:30:42;;;;;;;;;18.00;17.50;;;;;14.47;68.23;100329.28;2113305;27;45649;-68
2023/03/18 01:31:42;;;;;;;;;15.75;15.75;;;;;14.48;68.22;100330.16;2112840;27;45520;-68
2023/03/18 01:32:43;;;;;;;;;22.50;20.25;;;;;14.47;68.57;100326.59;2113660;27;46526;-67
2023/03/18 01:33:44;;;;;;;;;16.25;16.00;;;;;14.47;68.62;100328.41;2103871;28;46133;-67
2023/03/18 01:34:45;;;;;;;;;18.40;17.60;;;;;14.48;68.50;100327.47;2096143;28;45066;-67
2023/03/18 01:35:48;;;;;;;;;17.50;15.00;;;;;14.48;68.55;100327.47;2100546;28;46255;-68
2023/03/18 01:36:48;;;;;;;;;16.60;16.00;;;;;14.48;68.68;100330.16;2108706;27;46820;-67
2023/03/18 01:37:49;;;;;;;;;15.00;13.50;;;;;14.46;68.14;100324.88;2106254;27;47356;-67
2023/03/18 01:38:49;;;;;;;;;14.75;14.75;;;;;14.47;68.23;100318.59;2112453;27;45867;-68
2023/03/18 01:39:49;;;;;;;;;16.50;15.00;;;;;14.47;68.43;100323.94;2113056;27;46593;-68
2023/03/18 01:40:53;;;;;;;;;15.75;15.00;;;;;14.45;68.27;100323.13;2104394;28;46903;-68
2023/03/18 01:41:53;;;;;;;;;15.20;15.20;;;;;14.43;68.19;100314.31;2104074;27;46474;-67
2023/03/18 01:43:04;;;;;;;;;17.25;17.25;;;;;14.43;68.36;100311.63;2104209;28;45660;-69
2023/03/18 01:44:12;;;;;;;;;16.40;16.40;;;;;14.42;68.11;100313.44;2105738;27;45956;-68
2023/03/18 01:45:20;;;;;;;;;16.80;14.60;;;;;14.40;68.17;100319.78;2113317;27;46370;-68
2023/03/18 01:46:36;;;;;;;;;16.20;15.00;;;;;14.39;68.28;100310.03;2102268;27;46929;-69
2023/03/18 01:47:36;;;;;;;;;14.60;14.60;;;;;14.37;68.19;100312.78;2113810;27;45940;-68
2023/03/18 01:48:38;;;;;;;;;14.50;14.50;;;;;14.36;68.30;100308.38;2104421;28;45559;-68
2023/03/18 01:49:46;;;;;;;;;16.00;16.00;;;;;14.34;67.90;100307.56;2105721;27;46658;-69
2023/03/18 01:50:54;;;;;;;;;15.60;13.60;;;;;14.32;68.31;100312.09;2111331;27;45904;-69
2023/03/18 01:52:00;;;;;;;;;12.80;12.80;;;;;14.32;68.15;100305.91;2095611;28;46867;-67
2023/03/18 01:53:10;;;;;;;;;15.00;13.80;;;;;14.32;68.41;100303.22;2097735;28;46162;-67
2023/03/18 01:54:13;;;;;;;;;13.60;13.60;;;;;14.32;67.99;100289.88;2104265;27;46990;-68
2023/03/18 01:55:24;;;;;;;;;14.60;14.60;;;;;14.31;68.31;100301.50;2097013;28;46699;-68
2023/03/18 01:56:25;;;;;;;;;13.00;13.00;;;;;14.32;68.09;100306.75;2108551;27;46207;-67
2023/03/18 01:57:27;;;;;;;;;13.00;13.00;;;;;14.32;68.39;100306.75;2112553;27;46276;-68
2023/03/18 01:58:36;;;;;;;;;11.80;11.80;;;;;14.31;68.23;100301.50;2104830;28;45492;-67
2023/03/18 01:59:40;;;;;;;;;11.40;11.40;;;;;14.28;68.06;100302.50;2105926;27;46238;-68
2023/03/18 02:00:45;;;;;;;;;14.80;14.00;;;;;14.30;68.33;100307.78;2096005;28;46376;-69
2023/03/18 02:01:53;;;;;;;;;13.80;13.40;;;;;14.28;68.24;100305.16;2096406;28;46454;-67
2023/03/18 02:02:54;;;;;;;;;16.20;15.60;;;;;14.28;68.29;100313.19;2106438;27;47007;-67
2023/03/18 02:03:55;;;;;;;;;18.75;15.50;;;;;14.29;68.25;100311.38;2085741;28;46338;-67
2023/03/18 02:05:00;;;;;;;;;14.60;13.20;;;;;14.28;68.37;100313.19;2078639;28;47128;-68
2023/03/18 02:06:02;;;;;;;;;14.20;12.40;;;;;14.27;67.97;100314.13;2106299;27;46576;-68
2023/03/18 02:07:03;;;;;;;;;14.00;12.20;;;;;14.28;68.17;100315.84;2105343;27;46635;-69
2023/03/18 02:08:03;;;;;;;;;14.00;12.60;;;;;14.27;68.07;100321.25;2108335;27;46653;-69
2023/03/18 02:09:05;;;;;;;;;16.25;15.25;;;;;14.27;68.10;100319.44;2096307;28;46327;-69
2023/03/18 02:10:10;;;;;;;;;14.20;14.00;;;;;14.25;68.25;100318.66;2096228;28;45810;-68
2023/03/18 02:11:11;;;;;;;;;11.40;10.40;;;;;14.25;68.16;100307.97;2103908;28;46731;-68
2023/03/18 02:12:16;;;;;;;;;17.00;13.40;;;;;14.25;67.96;100313.31;2105705;27;46012;-68
2023/03/18 02:13:17;;;;;;;;;13.20;11.20;;;;;14.24;68.03;100310.72;2104997;28;45895;-67
2023/03/18 02:14:20;;;;;;;;;11.00;11.00;;;;;14.24;68.07;100319.59;2106143;27;45781;-68
2023/03/18 02:15:23;;;;;;;;;13.20;12.20;;;;;14.22;68.19;100310.75;2104717;27;46539;-69
2023/03/18 02:16:29;;;;;;;;;10.40;10.40;;;;;14.22;68.20;100312.56;2105189;28;47032;-67
2023/03/18 02:17:36;;;;;;;;;13.80;12.80;;;;;14.22;67.93;100309.88;2098317;28;45251;-67
2023/03/18 02:18:42;;;;;;;;;14.40;12.40;;;;;14.20;67.88;100304.63;2098838;27;46608;-68
2023/03/18 02:20:13;;;;;;;;;12.80;10.40;;;;;14.18;67.96;100311.84;2095928;28;45708;-67
2023/03/18 02:21:19;;;;;;;;;9.00;9.00;;;;;14.17;68.20;100312.75;2099716;28;46386;-67
2023/03/18 02:22:37;;;;;;;;;14.60;14.60;;;;;14.14;68.01;100307.56;2106344;27;46802;-68
2023/03/18 02:23:49;;;;;;;;;14.40;14.40;;;;;14.12;67.70;100310.31;2107665;27;45979;-68
2023/03/18 02:25:26;;;;;;;;;9.40;9.40;;;;;14.13;67.75;100316.50;2112867;27;46947;-68
2023/03/18 02:26:53;;;;;;;;;11.80;9.80;;;;;14.14;68.19;100331.59;2070121;28;46454;-68
2023/03/18 02:28:00;;;;;;;;;10.60;10.00;;;;;14.14;68.05;100326.25;2057034;28;46923;-68
2023/03/18 02:29:04;;;;;;;;;12.40;12.20;;;;;14.14;68.02;100328.91;2060997;28;45672;-67
2023/03/18 02:30:11;;;;;;;;;14.60;13.20;;;;;14.14;68.12;100331.59;2062162;28;46446;-68
2023/03/18 02:31:15;;;;;;;;;13.60;13.60;;;;;14.13;68.09;100330.72;2061970;28;46417;-68
2023/03/18 02:32:19;;;;;;;;;11.00;11.00;;;;;14.12;68.20;100336.13;2068611;28;46372;-68
2023/03/18 02:33:23;;;;;;;;;14.00;14.00;;;;;14.12;68.13;100322.78;2068178;28;45288;-68
2023/03/18 02:34:24;;;;;;;;;16.20;16.20;;;;;14.13;67.84;100321.84;2062442;28;45733;-69
2023/03/18 02:35:27;;;;;;;;;12.40;12.40;;;;;14.12;68.29;100320.13;2062061;28;46469;-68
2023/03/18 02:36:30;;;;;;;;;16.00;16.00;;;;;14.14;68.22;100315.56;2060109;28;45378;-68
2023/03/18 02:37:30;;;;;;;;;10.60;10.60;;;;;14.15;68.10;100311.97;2062593;28;45339;-68
2023/03/18 02:38:31;;;;;;;;;14.75;13.50;;;;;14.15;68.17;100314.63;2061820;28;46332;-68
2023/03/18 02:39:31;;;;;;;;;9.75;8.25;;;;;14.16;68.19;100304.81;2061366;28;46366;-68
2023/03/18 02:40:35;;;;;;;;;11.25;11.25;;;;;14.16;67.87;100304.81;2054487;28;46175;-67
2023/03/18 02:41:36;;;;;;;;;13.80;12.60;;;;;14.18;67.75;100311.84;2058326;28;46463;-67
2023/03/18 02:42:36;;;;;;;;;11.00;11.00;;;;;14.16;68.09;100307.50;2061935;28;46344;-67
2023/03/18 02:43:37;;;;;;;;;14.25;13.00;;;;;14.16;67.99;100308.38;2062223;28;46838;-67
2023/03/18 02:44:41;;;;;;;;;10.50;10.00;;;;;14.16;67.86;100304.81;2061704;28;45924;-67
2023/03/18 02:46:08;;;;;;;;;14.60;14.00;;;;;14.15;67.96;100311.97;2058206;28;46404;-68
2023/03/18 02:47:13;;;;;;;;;13.60;13.20;;;;;14.15;67.60;100306.63;2054767;28;46594;-67
2023/03/18 02:48:17;;;;;;;;;13.20;11.60;;;;;14.16;67.90;100315.50;2053568;28;45954;-68
2023/03/18 02:49:19;;;;;;;;;10.60;10.20;;;;;14.13;67.64;100319.19;2056302;28;45942;-68
2023/03/18 02:50:20;;;;;;;;;9.20;9.20;;;;;14.13;67.77;100319.19;2056816;28;46170;-68
2023/03/18 02:51:21;;;;;;;;;11.20;10.20;;;;;14.13;67.59;100332.53;2062451;28;46242;-68
2023/03/18 02:52:21;;;;;;;;;9.50;9.00;;;;;14.12;67.45;100331.66;2061590;28;46881;-68
2023/03/18 02:53:21;;;;;;;;;10.00;10.00;;;;;14.10;67.81;100325.53;2054086;28;46040;-68
2023/03/18 02:54:25;;;;;;;;;8.75;8.75;;;;;14.09;67.41;100325.56;2057644;28;46450;-68
2023/03/18 02:55:26;;;;;;;;;11.40;11.40;;;;;14.08;67.49;100330.03;2061901;28;46935;-69
2023/03/18 02:56:26;;;;;;;;;9.75;9.50;;;;;14.07;67.57;100327.44;2062538;28;46160;-67
2023/03/18 02:57:26;;;;;;;;;9.50;9.50;;;;;14.06;67.66;100325.69;2060154;28;45320;-67
2023/03/18 02:58:27;;;;;;;;;9.75;9.75;;;;;14.05;67.64;100327.50;2053922;28;46566;-67
2023/03/18 02:59:28;;;;;;;;;10.75;9.25;;;;;14.02;67.47;100322.28;2053937;28;46514;-69
2023/03/18 03:00:28;;;;;;;;;7.75;7.75;;;;;14.01;67.39;100336.56;2054075;28;46731;-67
2023/03/18 03:01:31;;;;;;;;;12.25;10.00;;;;;13.99;67.54;100326.91;2053743;28;46990;-68
2023/03/18 03:02:31;;;;;;;;;10.80;10.80;;;;;13.98;67.55;100327.84;2057791;28;46148;-68
2023/03/18 03:03:32;;;;;;;;;8.50;8.50;;;;;13.96;67.38;100322.53;2064180;28;46241;-67
2023/03/18 03:04:32;;;;;;;;;8.50;8.50;;;;;13.96;67.92;100327.88;2095980;28;46276;-67
2023/03/18 03:05:33;;;;;;;;;11.00;10.00;;;;;13.98;67.55;100333.16;2095504;28;46494;-68
2023/03/18 03:06:34;;;;;;;;;11.60;9.40;;;;;13.99;67.49;100325.09;2098452;28;46795;-68
2023/03/18 03:07:35;;;;;;;;;10.60;8.20;;;;;13.99;67.77;100324.22;2102000;28;46079;-68
2023/03/18 03:08:36;;;;;;;;;9.60;9.60;;;;;13.99;67.67;100324.22;2092879;28;46324;-68
2023/03/18 03:09:36;;;;;;;;;9.50;9.50;;;;;14.00;67.93;100326.84;2094358;28;46471;-68
2023/03/18 03:10:37;;;;;;;;;11.50;11.50;;;;;14.00;67.64;100332.16;2104159;28;46936;-68
2023/03/18 03:11:38;;;;;;;;;12.25;11.75;;;;;14.01;67.63;100331.22;2095308;28;47409;-67
2023/03/18 03:12:39;;;;;;;;;11.20;8.80;;;;;14.02;67.43;100334.75;2095390;28;46746;-68
2023/03/18 03:13:44;;;;;;;;;11.20;10.00;;;;;14.01;67.64;100336.56;2104127;28;45178;-67
2023/03/18 03:14:44;;;;;;;;;11.40;10.00;;;;;14.03;67.53;100333.84;2104703;28;46472;-67
2023/03/18 03:15:44;;;;;;;;;8.00;8.00;;;;;14.04;67.62;100336.44;2104437;27;46514;-67
2023/03/18 03:16:46;;;;;;;;;7.50;7.50;;;;;14.05;67.30;100335.50;2096875;28;45751;-68
2023/03/18 03:17:47;;;;;;;;;10.00;10.00;;;;;14.06;67.27;100339.03;2103126;28;45873;-67
2023/03/18 03:18:47;;;;;;;;;11.80;10.20;;;;;14.03;67.32;100332.03;2105076;27;46577;-68
2023/03/18 03:19:48;;;;;;;;;9.25;9.00;;;;;14.03;67.76;100339.16;2104449;28;46028;-67
2023/03/18 03:20:52;;;;;;;;;8.00;8.00;;;;;14.00;67.57;100337.50;2105812;27;46054;-67
2023/03/18 03:21:52;;;;;;;;;10.60;7.80;;;;;13.99;67.18;100338.44;2105374;27;46434;-68
2023/03/18 03:22:52;;;;;;;;;9.00;9.00;;;;;13.98;67.25;100339.38;2103023;27;46110;-68
2023/03/18 03:23:53;;;;;;;;;9.25;9.25;;;;;13.98;67.50;100338.50;2109642;27;45049;-67
2023/03/18 03:24:53;;;;;;;;;12.00;10.50;;;;;13.97;67.29;100334.94;2112804;27;46782;-68
2023/03/18 03:25:54;;;;;;;;;8.00;8.00;;;;;13.99;67.44;100340.25;2104631;27;46674;-68
2023/03/18 03:26:54;;;;;;;;;8.00;8.00;;;;;14.00;67.19;100340.16;2104466;27;46645;-67
2023/03/18 03:27:54;;;;;;;;;8.50;8.50;;;;;13.99;67.38;100342.91;2098853;28;46107;-68
2023/03/18 03:28:55;;;;;;;;;8.00;7.25;;;;;14.00;67.53;100347.31;2097058;28;46125;-68
2023/03/18 03:29:56;;;;;;;;;7.00;7.00;;;;;13.98;67.12;100341.19;2104155;27;46715;-67
2023/03/18 03:30:57;;;;;;;;;6.50;6.50;;;;;13.97;67.34;100348.28;2104447;28;46989;-68
2023/03/18 03:31:57;;;;;;;;;8.40;8.40;;;;;13.96;67.32;100343.88;2103660;27;46409;-68
2023/03/18 03:32:58;;;;;;;;;8.50;8.50;;;;;13.96;67.10;100346.53;2104525;28;46350;-67
2023/03/18 03:33:59;;;;;;;;;9.80;8.00;;;;;13.97;67.14;100340.28;2104363;27;45669;-67
2023/03/18 03:35:00;;;;;;;;;10.00;8.50;;;;;13.98;67.16;100341.19;2104187;27;46087;-68
2023/03/18 03:36:00;;;;;;;;;7.75;7.50;;;;;14.00;67.24;100336.63;2104488;28;45914;-68
2023/03/18 03:37:00;;;;;;;;;9.00;9.00;;;;;14.01;67.11;100335.69;2104185;27;46690;-68
2023/03/18 03:38:01;;;;;;;;;8.75;8.75;;;;;14.02;67.17;100334.75;2095143;28;45555;-67
2023/03/18 03:39:03;;;;;;;;;10.20;8.60;;;;;14.01;67.24;100336.56;2095043;28;46267;-67
2023/03/18 03:40:05;;;;;;;;;8.80;7.80;;;;;14.00;67.34;100326.84;2095806;28;46723;-67
2023/03/18 03:41:07;;;;;;;;;9.40;7.80;;;;;14.01;67.09;100327.69;2097020;28;46848;-67
2023/03/18 03:42:08;;;;;;;;;8.00;8.00;;;;;14.02;67.23;100335.63;2114406;27;45697;-67
2023/03/18 03:43:11;;;;;;;;;8.75;8.75;;;;;14.03;67.18;100336.50;2104362;28;46497;-67
2023/03/18 03:44:12;;;;;;;;;9.00;9.00;;;;;14.03;67.11;100331.16;2097266;28;46648;-67
2023/03/18 03:45:14;;;;;;;;;7.00;7.00;;;;;14.03;67.20;100334.69;2104279;28;46359;-67
2023/03/18 03:46:15;;;;;;;;;10.00;9.60;;;;;14.02;67.13;100327.63;2102002;27;46410;-67
2023/03/18 03:47:15;;;;;;;;;8.75;7.25;;;;;14.01;67.25;100331.22;2114172;27;45732;-68
2023/03/18 03:48:16;;;;;;;;;8.00;8.00;;;;;14.03;66.93;100333.84;2114101;27;46757;-67
2023/03/18 03:49:17;;;;;;;;;7.25;7.25;;;;;14.03;67.15;100336.50;2110991;27;45679;-67
2023/03/18 03:50:18;;;;;;;;;7.40;7.00;;;;;14.02;67.33;100340.97;2111786;27;46416;-68
2023/03/18 03:51:18;;;;;;;;;9.75;9.75;;;;;14.05;67.13;100345.31;2109694;27;46650;-67
2023/03/18 03:52:18;;;;;;;;;8.00;8.00;;;;;14.05;66.84;100343.50;2114288;27;46466;-67
2023/03/18 03:53:19;;;;;;;;;8.75;8.75;;;;;14.04;67.05;100346.25;2114073;27;45930;-67
2023/03/18 03:54:20;;;;;;;;;10.60;9.40;;;;;14.03;67.14;100345.38;2113575;27;46040;-68
2023/03/18 03:55:21;;;;;;;;;4.75;4.75;;;;;14.03;66.88;100349.84;2114020;27;46170;-68
2023/03/18 03:56:21;;;;;;;;;9.60;8.60;;;;;14.03;67.13;100347.16;2113543;27;46328;-67
2023/03/18 03:57:23;;;;;;;;;8.50;8.50;;;;;14.02;67.03;100354.31;2113830;27;46340;-68
2023/03/18 03:58:23;;;;;;;;;7.80;7.80;;;;;14.02;67.08;100345.44;2105182;28;46811;-67
2023/03/18 03:59:23;;;;;;;;;8.75;7.75;;;;;14.01;66.89;100347.25;2100315;28;46963;-67
2023/03/18 04:00:24;;;;;;;;;10.25;9.00;;;;;14.01;67.01;100349.03;2105152;28;46653;-67
2023/03/18 04:01:26;;;;;;;;;6.60;6.60;;;;;14.02;67.43;100345.44;2106681;27;45807;-68
2023/03/18 04:02:26;;;;;;;;;9.60;9.60;;;;;14.02;67.34;100348.09;2105066;28;45636;-67
2023/03/18 04:03:27;;;;;;;;;11.25;10.00;;;;;14.03;66.97;100349.84;2105645;28;45539;-67
2023/03/18 04:04:28;;;;;;;;;9.25;8.75;;;;;14.04;67.42;100349.78;2106150;27;46689;-67
2023/03/18 04:05:28;;;;;;;;;7.25;7.25;;;;;14.04;67.44;100349.78;2106005;27;46579;-67
2023/03/18 04:06:28;;;;;;;;;7.75;7.75;;;;;14.05;67.45;100350.63;2105612;28;46551;-68
2023/03/18 04:07:29;;;;;;;;;8.75;7.25;;;;;14.06;66.98;100352.38;2110447;27;45809;-68
2023/03/18 04:08:30;;;;;;;;;5.25;5.25;;;;;14.07;67.16;100351.44;2108834;27;46611;-67
2023/03/18 04:09:30;;;;;;;;;7.80;7.60;;;;;14.07;67.56;100349.63;2107743;27;46635;-67
2023/03/18 04:10:33;;;;;;;;;7.75;7.75;;;;;14.08;67.29;100359.38;2106165;27;46152;-67
2023/03/18 04:11:33;;;;;;;;;8.80;6.80;;;;;14.10;67.48;100353.97;2096644;28;45497;-68
2023/03/18 04:12:34;;;;;;;;;9.00;9.00;;;;;14.11;67.37;100363.75;2102981;27;45972;-68
2023/03/18 04:13:35;;;;;;;;;6.75;6.75;;;;;14.10;67.23;100353.97;2112779;27;47097;-68
2023/03/18 04:14:35;;;;;;;;;8.50;8.25;;;;;14.09;67.37;100361.09;2105234;27;46188;-67
2023/03/18 04:15:35;;;;;;;;;8.00;7.00;;;;;14.09;67.76;100361.09;2105906;27;45463;-69
2023/03/18 04:16:37;;;;;;;;;9.25;8.00;;;;;14.08;67.84;100362.03;2105686;28;46773;-69
2023/03/18 04:17:37;;;;;;;;;9.20;7.20;;;;;14.07;67.66;100354.97;2103159;27;46497;-68
2023/03/18 04:18:38;;;;;;;;;5.75;5.75;;;;;14.08;68.02;100351.38;2107620;27;46263;-68
2023/03/18 04:19:39;;;;;;;;;8.25;8.25;;;;;14.09;67.85;100354.91;2105611;28;46302;-67
2023/03/18 04:20:39;;;;;;;;;11.60;8.00;;;;;14.08;67.83;100350.50;2108341;27;46029;-68
2023/03/18 04:21:39;;;;;;;;;9.25;9.25;;;;;14.09;67.83;100360.25;2098211;28;46137;-66
2023/03/18 04:22:40;;;;;;;;;7.50;7.50;;;;;14.08;67.86;100350.50;2104618;28;46566;-69
2023/03/18 04:23:41;;;;;;;;;7.50;7.50;;;;;14.08;68.16;100356.72;2113939;27;46374;-68
2023/03/18 04:24:41;;;;;;;;;7.50;7.50;;;;;14.08;68.11;100359.38;2113920;27;46462;-68
2023/03/18 04:25:42;;;;;;;;;7.50;7.50;;;;;14.08;68.16;100356.72;2108392;27;46308;-69
2023/03/18 04:26:42;;;;;;;;;6.25;6.25;;;;;14.09;68.08;100360.25;2096594;28;46360;-69
2023/03/18 04:27:42;;;;;;;;;5.50;5.50;;;;;14.08;68.10;100361.19;2085583;28;46164;-69
2023/03/18 04:28:43;;;;;;;;;7.00;7.00;;;;;14.06;68.22;100360.38;2096499;28;46671;-68
2023/03/18 04:29:43;;;;;;;;;7.25;7.25;;;;;14.03;68.21;100360.50;2105432;28;46408;-68
2023/03/18 04:30:44;;;;;;;;;5.25;5.25;;;;;14.03;68.17;100358.72;2113643;27;46601;-68
2023/03/18 04:31:44;;;;;;;;;7.50;7.50;;;;;14.03;68.31;100360.50;2106579;27;45788;-68
2023/03/18 04:32:45;;;;;;;;;6.00;6.00;;;;;14.03;68.26;100353.38;2105345;28;46632;-68
2023/03/18 04:33:45;;;;;;;;;9.25;8.50;;;;;14.04;68.32;100357.78;2105413;27;46849;-67
2023/03/18 04:34:45;;;;;;;;;7.00;7.00;;;;;14.04;68.51;100354.25;2106229;27;45496;-67
2023/03/18 04:35:47;;;;;;;;;9.25;7.25;;;;;14.04;68.26;100360.44;2105052;28;46786;-68
2023/03/18 04:36:47;;;;;;;;;6.80;6.80;;;;;14.03;68.25;100364.03;2109137;27;46868;-68
2023/03/18 04:37:48;;;;;;;;;8.00;6.75;;;;;14.03;68.06;100358.72;2105887;27;45588;-69
2023/03/18 04:38:49;;;;;;;;;5.40;3.80;;;;;14.04;68.06;100355.09;2097558;28;46765;-68
2023/03/18 04:39:49;;;;;;;;;5.25;5.25;;;;;14.04;68.41;100355.09;2105427;28;46318;-68
2023/03/18 04:40:49;;;;;;;;;9.75;8.00;;;;;14.04;68.26;100354.25;2105056;28;46465;-68
2023/03/18 04:41:50;;;;;;;;;6.50;6.50;;;;;14.03;68.32;100353.38;2105788;28;46302;-68
2023/03/18 04:42:51;;;;;;;;;8.00;8.00;;;;;14.04;68.43;100351.56;2105605;28;46115;-68
2023/03/18 04:43:51;;;;;;;;;8.00;8.00;;;;;14.04;68.17;100355.09;2105494;28;46851;-68
2023/03/18 04:44:52;;;;;;;;;7.25;7.25;;;;;14.06;68.13;100352.38;2104831;28;46432;-68